Terminal Aerodrome Forecast
Issued by NWS Raleigh/Durham, NC

Home | Current Version | Previous Version | Text Only | Print | Product List | Glossary On
Versions: 1 2 3 4 5 6 7 8 9 10 11 12 13 14 15 16 17 18 19 20 21 22 23 24 25 26 27 28 29 30 31 32 33 34
000
FTUS42 KRAH 211720
TAFFAY
TAF
KFAY 211720Z 2118/2218 10008KT P6SM BKN250
     FM220400 08003KT 5SM BR SCT020 BKN200
     FM220800 08004KT 4SM BR OVC020
     FM221400 13005KT P6SM SCT015 BKN200=

USA.gov is the U.S. government's official web portal to all federal, state and local government web resources and services.